createdAt,value
2023-05-22T00:01:46.851Z,2.80
2023-05-22T00:04:21.274Z,2.30
2023-05-22T00:06:49.561Z,2.30
2023-05-22T00:09:17.615Z,2.70
2023-05-22T00:11:45.479Z,2.10
2023-05-22T00:14:16.237Z,2.60
2023-05-22T00:16:44.598Z,2.10
2023-05-22T00:19:16.582Z,1.90
2023-05-22T00:21:44.816Z,2.10
2023-05-22T00:24:12.774Z,2.30
2023-05-22T00:26:40.574Z,2.50
2023-05-22T00:29:08.453Z,2.40
2023-05-22T00:31:36.151Z,2.40
2023-05-22T00:34:03.848Z,2.20
2023-05-22T00:36:31.613Z,2.50
2023-05-22T00:38:59.332Z,2.50
2023-05-22T00:41:27.307Z,2.40
2023-05-22T00:43:54.955Z,2.70
2023-05-22T00:46:22.978Z,2.50
2023-05-22T00:48:52.668Z,2.40
2023-05-22T00:51:22.399Z,2.60
2023-05-22T00:53:52.107Z,2.50
2023-05-22T00:56:21.849Z,2.40
2023-05-22T00:58:50.758Z,2.80
2023-05-22T01:01:18.866Z,2.80
2023-05-22T01:03:46.974Z,2.50
2023-05-22T01:06:18.590Z,2.30
2023-05-22T01:08:46.311Z,2.50
2023-05-22T01:11:31.096Z,2.50
2023-05-22T01:14:17.473Z,2.00
2023-05-22T01:16:54.881Z,2.20
2023-05-22T01:20:07.421Z,2.10
2023-05-22T01:22:58.402Z,2.40
2023-05-22T01:25:53.040Z,2.30
2023-05-22T01:29:03.835Z,2.00
2023-05-22T01:31:36.761Z,2.60
2023-05-22T01:34:07.328Z,2.20
2023-05-22T01:36:38.304Z,2.50
2023-05-22T01:39:07.861Z,2.30
2023-05-22T01:41:36.474Z,2.60
2023-05-22T01:44:04.327Z,2.80
2023-05-22T01:46:32.398Z,2.40
2023-05-22T01:49:00.609Z,2.10
2023-05-22T01:51:43.328Z,2.50
2023-05-22T01:54:24.135Z,2.20
2023-05-22T01:57:02.761Z,2.70
2023-05-22T01:59:56.984Z,3.70
2023-05-22T02:02:27.655Z,5.20
2023-05-22T02:05:01.662Z,5.50
2023-05-22T02:07:33.424Z,5.50
2023-05-22T02:10:02.984Z,3.30
2023-05-22T02:12:31.049Z,3.10
2023-05-22T02:14:58.861Z,2.80
2023-05-22T02:17:27.192Z,2.90
2023-05-22T02:19:54.918Z,2.30
2023-05-22T02:22:22.604Z,2.50
2023-05-22T02:24:50.394Z,2.30
2023-05-22T02:27:18.183Z,2.70
2023-05-22T02:29:46.674Z,3.10
2023-05-22T02:32:14.315Z,2.60
2023-05-22T02:34:42.080Z,2.50
2023-05-22T02:37:09.776Z,2.70
2023-05-22T02:39:37.418Z,2.40
2023-05-22T02:42:05.735Z,2.80
2023-05-22T02:44:33.431Z,2.20
2023-05-22T02:47:01.213Z,2.30
2023-05-22T02:49:28.864Z,2.20
2023-05-22T02:51:56.639Z,2.80
2023-05-22T02:54:24.287Z,2.20
2023-05-22T02:56:51.968Z,2.20
2023-05-22T02:59:19.714Z,2.50
2023-05-22T03:01:48.467Z,2.40
2023-05-22T03:04:16.574Z,2.50
2023-05-22T03:06:46.304Z,2.30
2023-05-22T03:09:14.228Z,2.30
2023-05-22T03:11:42.562Z,2.00
2023-05-22T03:14:10.328Z,3.20
2023-05-22T03:16:38.029Z,2.10
2023-05-22T03:19:14.836Z,1.90
2023-05-22T03:21:45.884Z,2.50
2023-05-22T03:24:13.588Z,3.10
2023-05-22T03:26:42.075Z,2.70
2023-05-22T03:29:10.070Z,2.30
2023-05-22T03:31:37.879Z,2.60
2023-05-22T03:34:06.198Z,2.90
2023-05-22T03:36:36.663Z,2.70
2023-05-22T03:39:05.255Z,3.00
2023-05-22T03:41:33.019Z,2.80
2023-05-22T03:44:00.800Z,3.20
2023-05-22T03:46:28.577Z,2.80
2023-05-22T03:48:56.361Z,2.50
2023-05-22T03:51:23.994Z,2.50
2023-05-22T03:53:51.870Z,2.80
2023-05-22T03:56:19.601Z,2.70
2023-05-22T03:58:47.260Z,2.90
2023-05-22T04:01:16.903Z,3.00
2023-05-22T04:03:44.727Z,2.60
2023-05-22T04:06:13.804Z,2.80
2023-05-22T04:08:41.595Z,2.90
2023-05-22T04:11:09.250Z,2.90
2023-05-22T04:13:36.899Z,2.80
2023-05-22T04:16:04.969Z,2.70
2023-05-22T04:18:32.708Z,2.70
2023-05-22T04:21:00.907Z,3.00
2023-05-22T04:23:28.904Z,2.70
2023-05-22T04:25:58.268Z,2.70
2023-05-22T04:28:26.985Z,2.60
2023-05-22T04:30:55.338Z,2.70
2023-05-22T04:33:24.673Z,4.90
2023-05-22T04:35:52.444Z,4.80
2023-05-22T04:38:20.537Z,5.10
2023-05-22T04:40:48.439Z,4.70
2023-05-22T04:43:18.757Z,5.20
2023-05-22T04:45:46.892Z,5.70
2023-05-22T04:48:15.403Z,5.00
2023-05-22T04:50:47.412Z,4.90
2023-05-22T04:53:15.212Z,4.30
2023-05-22T04:55:43.082Z,4.10
2023-05-22T04:58:10.750Z,3.80
2023-05-22T05:00:38.800Z,3.30
2023-05-22T05:03:08.369Z,2.90
2023-05-22T05:05:36.348Z,2.90
2023-05-22T05:08:04.207Z,3.10
2023-05-22T05:10:31.958Z,2.70
2023-05-22T05:12:59.692Z,3.00
2023-05-22T05:15:29.071Z,2.50
2023-05-22T05:17:56.750Z,2.60
2023-05-22T05:20:24.877Z,2.60
2023-05-22T05:22:52.730Z,2.50
2023-05-22T05:25:20.454Z,2.60
2023-05-22T05:27:48.372Z,2.80
2023-05-22T05:30:17.652Z,2.60
2023-05-22T05:32:47.426Z,2.60
2023-05-22T05:35:15.247Z,2.40
2023-05-22T05:37:43.530Z,2.40
2023-05-22T05:40:13.122Z,2.40
2023-05-22T05:42:40.840Z,2.50
2023-05-22T05:45:09.749Z,2.90
2023-05-22T05:47:37.466Z,2.10
2023-05-22T05:50:06.298Z,2.80
2023-05-22T05:52:34.251Z,2.90
2023-05-22T05:55:01.968Z,2.40
2023-05-22T05:57:31.044Z,2.50
2023-05-22T05:59:58.774Z,2.40
2023-05-22T06:02:26.538Z,2.70
2023-05-22T06:04:56.044Z,2.00
2023-05-22T06:07:24.416Z,3.00
2023-05-22T06:09:52.697Z,2.30
2023-05-22T06:12:20.356Z,1.80
2023-05-22T06:14:48.060Z,2.30
2023-05-22T06:17:16.810Z,2.50
2023-05-22T06:19:44.705Z,2.60
2023-05-22T06:22:12.413Z,2.30
2023-05-22T06:24:40.136Z,2.00
2023-05-22T06:27:08.033Z,2.50
2023-05-22T06:29:35.784Z,2.30
2023-05-22T06:32:03.671Z,2.40
2023-05-22T06:34:31.732Z,2.40
2023-05-22T06:36:59.474Z,2.60
2023-05-22T06:39:27.140Z,2.40
2023-05-22T06:41:54.922Z,2.20
2023-05-22T06:44:22.590Z,2.80
2023-05-22T06:46:50.297Z,2.00
2023-05-22T06:49:19.552Z,2.10
2023-05-22T06:51:47.440Z,2.00
2023-05-22T06:54:15.395Z,1.80
2023-05-22T06:56:43.715Z,2.10
2023-05-22T06:59:14.422Z,2.70
2023-05-22T07:01:42.157Z,1.80
2023-05-22T07:04:11.897Z,1.90
2023-05-22T07:06:41.837Z,2.60
2023-05-22T07:09:11.346Z,2.50
2023-05-22T07:11:39.174Z,2.20
2023-05-22T07:14:07.901Z,2.50
2023-05-22T07:16:37.067Z,3.10
2023-05-22T07:19:05.026Z,2.10
2023-05-22T07:21:35.185Z,2.30
2023-05-22T07:24:08.278Z,2.40
2023-05-22T07:26:37.583Z,2.20
2023-05-22T07:29:05.491Z,2.40
2023-05-22T07:31:34.463Z,1.70
2023-05-22T07:34:02.356Z,2.20
2023-05-22T07:36:30.212Z,1.60
2023-05-22T07:38:58.237Z,1.90
2023-05-22T07:41:27.455Z,2.00
2023-05-22T07:43:55.315Z,1.80
2023-05-22T07:46:23.150Z,2.10
2023-05-22T07:48:50.879Z,1.90
2023-05-22T07:51:18.672Z,1.50
2023-05-22T07:53:46.911Z,1.50
2023-05-22T07:56:14.661Z,2.20
2023-05-22T07:58:42.446Z,1.90
2023-05-22T08:01:10.172Z,2.00
2023-05-22T08:03:38.010Z,2.00
2023-05-22T08:06:06.903Z,2.00
2023-05-22T08:08:34.797Z,1.80
2023-05-22T08:11:04.755Z,1.90
2023-05-22T08:13:32.761Z,2.10
2023-05-22T08:16:01.550Z,2.10
2023-05-22T08:18:29.944Z,1.70
2023-05-22T08:20:59.745Z,1.90
2023-05-22T08:23:27.652Z,2.00
2023-05-22T08:25:56.744Z,1.90
2023-05-22T08:28:24.619Z,2.20
2023-05-22T08:30:52.473Z,2.00
2023-05-22T08:33:20.253Z,2.10
2023-05-22T08:35:48.014Z,1.90
2023-05-22T08:38:16.320Z,1.60
2023-05-22T08:40:49.874Z,2.10
2023-05-22T08:43:21.415Z,2.20
2023-05-22T08:46:09.820Z,1.90
2023-05-22T08:48:38.369Z,1.90
2023-05-22T08:51:07.644Z,1.70
2023-05-22T08:53:37.054Z,1.80
2023-05-22T08:56:08.441Z,1.80
2023-05-22T08:58:38.257Z,1.50
2023-05-22T09:01:07.412Z,1.90
2023-05-22T09:03:36.941Z,1.90
2023-05-22T09:06:10.467Z,1.90
2023-05-22T09:08:39.297Z,1.80
2023-05-22T09:11:07.005Z,2.10
2023-05-22T09:13:34.660Z,1.80
2023-05-22T09:16:11.695Z,2.10
2023-05-22T09:18:41.269Z,1.60
2023-05-22T09:21:25.713Z,1.80
2023-05-22T09:24:01.743Z,1.80
2023-05-22T09:26:30.371Z,2.00
2023-05-22T09:29:00.798Z,2.10
2023-05-22T09:31:29.616Z,2.60
2023-05-22T09:33:59.070Z,1.80
2023-05-22T09:36:33.855Z,2.10
2023-05-22T09:39:04.166Z,1.60
2023-05-22T09:41:38.689Z,2.00
2023-05-22T09:44:14.272Z,1.80
2023-05-22T09:46:47.446Z,1.90
2023-05-22T09:49:17.219Z,2.10
2023-05-22T09:51:49.548Z,2.30
2023-05-22T09:54:20.245Z,2.30
2023-05-22T09:56:50.671Z,3.10
2023-05-22T09:59:27.107Z,2.30
2023-05-22T10:01:55.172Z,2.20
2023-05-22T10:04:23.992Z,2.20
2023-05-22T10:06:57.595Z,2.00
2023-05-22T10:09:32.776Z,1.90
2023-05-22T10:12:08.259Z,2.30
2023-05-22T10:14:36.725Z,2.30
2023-05-22T10:17:06.958Z,2.60
2023-05-22T10:19:39.688Z,2.20
2023-05-22T10:22:14.968Z,2.30
2023-05-22T10:24:43.292Z,2.00
2023-05-22T10:27:11.083Z,1.90
2023-05-22T10:29:56.685Z,2.00
2023-05-22T10:32:38.993Z,2.50
2023-05-22T10:35:36.327Z,1.90
2023-05-22T10:38:39.933Z,2.20
2023-05-22T10:41:09.716Z,2.20
2023-05-22T10:43:44.244Z,2.20
2023-05-22T10:46:13.291Z,2.40
2023-05-22T10:48:45.746Z,2.70
2023-05-22T10:51:18.110Z,1.80
2023-05-22T10:53:53.231Z,2.50
2023-05-22T10:56:24.464Z,2.00
2023-05-22T10:59:08.423Z,2.00
2023-05-22T11:01:38.345Z,2.80
2023-05-22T11:04:11.943Z,3.20
2023-05-22T11:06:50.070Z,2.40
2023-05-22T11:09:29.616Z,2.80
2023-05-22T11:12:24.489Z,3.00
2023-05-22T11:14:58.959Z,2.40
2023-05-22T11:17:30.105Z,1.90
2023-05-22T11:20:24.344Z,2.60
2023-05-22T11:23:05.729Z,2.50
2023-05-22T11:25:36.666Z,2.40
2023-05-22T11:28:06.545Z,2.90
2023-05-22T11:30:35.294Z,3.00
2023-05-22T11:33:03.249Z,3.00
2023-05-22T11:35:31.916Z,2.70
2023-05-22T11:38:03.648Z,2.70
2023-05-22T11:40:31.483Z,2.30
2023-05-22T11:42:59.360Z,4.40
2023-05-22T11:45:27.417Z,2.40
2023-05-22T11:47:56.053Z,2.40
2023-05-22T11:50:40.263Z,2.70
2023-05-22T11:53:08.708Z,2.30
2023-05-22T11:55:36.414Z,2.40
2023-05-22T11:58:04.173Z,2.70
2023-05-22T12:00:32.576Z,2.60
2023-05-22T12:03:01.072Z,3.20
2023-05-22T12:05:32.260Z,2.50
2023-05-22T12:08:00.194Z,2.90
2023-05-22T12:10:29.204Z,2.60
2023-05-22T12:12:57.022Z,2.90
2023-05-22T12:15:25.476Z,2.20
2023-05-22T12:17:56.460Z,2.70
2023-05-22T12:20:31.040Z,2.70
2023-05-22T12:22:59.763Z,2.70
2023-05-22T12:25:37.322Z,2.60
2023-05-22T12:28:08.185Z,2.30
2023-05-22T12:30:42.990Z,2.40
2023-05-22T12:33:17.351Z,2.60
2023-05-22T12:35:45.114Z,2.50
2023-05-22T12:38:13.684Z,2.40
2023-05-22T12:40:41.568Z,2.80
2023-05-22T12:43:09.587Z,2.60
2023-05-22T12:45:37.286Z,2.80
2023-05-22T12:48:07.752Z,2.40
2023-05-22T12:50:36.209Z,2.90
2023-05-22T12:53:04.009Z,2.60
2023-05-22T12:55:33.149Z,2.40
2023-05-22T12:58:01.349Z,2.80
2023-05-22T13:00:29.225Z,2.50
2023-05-22T13:02:57.409Z,2.60
2023-05-22T13:05:25.612Z,2.40
2023-05-22T13:07:53.423Z,3.00
2023-05-22T13:10:21.474Z,2.70
2023-05-22T13:12:51.295Z,3.00
2023-05-22T13:15:19.173Z,3.00
2023-05-22T13:17:46.953Z,3.00
2023-05-22T13:20:14.958Z,2.60
2023-05-22T13:22:42.794Z,2.70
2023-05-22T13:25:10.634Z,2.80
2023-05-22T13:27:38.309Z,2.80
2023-05-22T13:30:07.179Z,2.50
2023-05-22T13:32:35.341Z,2.90
2023-05-22T13:35:03.143Z,2.20
2023-05-22T13:37:31.186Z,2.30
2023-05-22T13:39:59.018Z,2.40
2023-05-22T13:42:26.748Z,2.70
2023-05-22T13:44:54.639Z,2.50
2023-05-22T13:47:23.282Z,2.30
2023-05-22T13:49:51.574Z,2.70
2023-05-22T13:52:19.328Z,2.30
2023-05-22T13:54:47.175Z,2.40
2023-05-22T13:57:14.880Z,2.10
2023-05-22T13:59:42.634Z,2.40
2023-05-22T14:02:10.872Z,2.70
2023-05-22T14:04:38.721Z,2.40
2023-05-22T14:07:06.622Z,2.80
2023-05-22T14:09:34.295Z,2.60
2023-05-22T14:12:02.800Z,2.80
2023-05-22T14:14:30.538Z,2.30
2023-05-22T14:16:59.978Z,2.70
2023-05-22T14:19:28.854Z,2.60
2023-05-22T14:21:56.617Z,2.30
2023-05-22T14:24:24.389Z,2.40
2023-05-22T14:26:53.047Z,2.60
2023-05-22T14:29:21.074Z,2.40
2023-05-22T14:31:51.843Z,2.50
2023-05-22T14:34:20.047Z,2.50
2023-05-22T14:36:48.360Z,2.60
2023-05-22T14:39:16.481Z,2.70
2023-05-22T14:41:44.280Z,2.70
2023-05-22T14:44:12.010Z,2.40
2023-05-22T14:46:39.799Z,2.90
2023-05-22T14:49:07.598Z,2.70
2023-05-22T14:51:35.418Z,2.20
2023-05-22T14:54:04.826Z,2.60
2023-05-22T14:56:32.512Z,2.50
2023-05-22T14:59:00.565Z,2.70
2023-05-22T15:01:28.369Z,2.90
2023-05-22T15:03:56.086Z,1.80
2023-05-22T15:06:23.726Z,2.70
2023-05-22T15:08:51.544Z,2.60
2023-05-22T15:11:19.310Z,2.40
2023-05-22T15:13:47.028Z,2.50
2023-05-22T15:16:14.746Z,2.60
2023-05-22T15:18:42.523Z,2.80
2023-05-22T15:21:10.691Z,2.30
2023-05-22T15:23:38.333Z,2.30
2023-05-22T15:26:06.934Z,2.10
2023-05-22T15:28:34.797Z,2.20
2023-05-22T15:31:02.497Z,2.90
2023-05-22T15:33:30.349Z,2.30
2023-05-22T15:35:57.962Z,2.50
2023-05-22T15:38:25.699Z,2.30
2023-05-22T15:40:53.640Z,2.30
2023-05-22T15:43:21.380Z,2.40
2023-05-22T15:45:49.411Z,2.40
2023-05-22T15:48:17.253Z,2.60
2023-05-22T15:50:45.175Z,2.60
2023-05-22T15:53:12.872Z,2.50
2023-05-22T15:55:40.783Z,2.70
2023-05-22T15:58:08.799Z,3.00
2023-05-22T16:00:41.164Z,2.40
2023-05-22T16:03:10.186Z,2.70
2023-05-22T16:05:40.351Z,2.30
2023-05-22T16:08:11.447Z,2.00
2023-05-22T16:10:41.572Z,2.80
2023-05-22T16:13:12.246Z,2.50
2023-05-22T16:15:41.411Z,2.70
2023-05-22T16:18:11.180Z,2.80
2023-05-22T16:20:39.012Z,2.60
2023-05-22T16:23:06.717Z,2.20
2023-05-22T16:25:34.433Z,3.00
2023-05-22T16:28:02.239Z,2.60
2023-05-22T16:30:30.085Z,2.60
2023-05-22T16:32:57.857Z,2.30
2023-05-22T16:35:25.951Z,2.40
2023-05-22T16:37:53.962Z,2.90
2023-05-22T16:40:21.767Z,2.70
2023-05-22T16:42:50.767Z,3.20
2023-05-22T16:45:18.460Z,3.30
2023-05-22T16:47:46.265Z,3.00
2023-05-22T16:50:13.962Z,2.90
2023-05-22T16:52:41.736Z,2.90
2023-05-22T16:55:09.717Z,2.40
2023-05-22T16:57:38.773Z,2.60
2023-05-22T17:00:10.811Z,2.60
2023-05-22T17:02:38.823Z,2.80
2023-05-22T17:05:07.589Z,2.60
2023-05-22T17:07:35.340Z,2.80
2023-05-22T17:10:03.106Z,2.40
2023-05-22T17:12:31.043Z,2.90
2023-05-22T17:14:58.750Z,3.20
2023-05-22T17:17:27.761Z,2.80
2023-05-22T17:19:55.598Z,2.70
2023-05-22T17:22:23.272Z,3.20
2023-05-22T17:24:51.034Z,3.10
2023-05-22T17:27:34.365Z,2.80
2023-05-22T17:30:03.406Z,2.80
2023-05-22T17:32:31.196Z,2.80
2023-05-22T17:35:00.053Z,3.00
2023-05-22T17:37:28.139Z,3.30
2023-05-22T17:39:55.902Z,3.00
2023-05-22T17:42:23.690Z,3.00
2023-05-22T17:44:51.719Z,3.00
2023-05-22T17:47:19.429Z,3.10
2023-05-22T17:49:47.133Z,3.20
2023-05-22T17:52:14.984Z,3.20
2023-05-22T17:54:42.754Z,2.60
2023-05-22T17:57:10.577Z,3.30
2023-05-22T17:59:40.322Z,3.20
2023-05-22T18:02:09.448Z,3.60
2023-05-22T18:04:37.155Z,3.70
2023-05-22T18:07:05.377Z,3.90
2023-05-22T18:09:33.015Z,4.60
2023-05-22T18:12:02.407Z,5.20
2023-05-22T18:14:30.154Z,5.20
2023-05-22T18:16:58.331Z,4.40
2023-05-22T18:19:26.115Z,4.10
2023-05-22T18:21:54.077Z,4.40
2023-05-22T18:24:27.717Z,4.50
2023-05-22T18:26:55.836Z,3.80
2023-05-22T18:29:23.491Z,3.80
2023-05-22T18:31:51.241Z,3.60
2023-05-22T18:34:19.727Z,3.30
2023-05-22T18:36:49.363Z,3.90
2023-05-22T18:39:17.094Z,3.90
2023-05-22T18:41:44.765Z,4.00
2023-05-22T18:44:12.454Z,3.80
2023-05-22T18:46:40.229Z,4.70
2023-05-22T18:49:08.024Z,3.90
2023-05-22T18:51:37.105Z,4.60
2023-05-22T18:54:04.838Z,4.70
2023-05-22T18:56:32.580Z,4.70
2023-05-22T18:59:00.303Z,5.50
2023-05-22T19:01:28.795Z,6.30
2023-05-22T19:03:56.871Z,5.50
2023-05-22T19:06:26.263Z,6.10
2023-05-22T19:08:54.014Z,6.00
2023-05-22T19:11:21.672Z,5.90
2023-05-22T19:13:49.360Z,6.10
2023-05-22T19:16:17.452Z,5.80
2023-05-22T19:18:46.508Z,6.10
2023-05-22T19:21:14.191Z,5.40
2023-05-22T19:23:42.765Z,5.20
2023-05-22T19:26:10.743Z,5.10
2023-05-22T19:28:40.406Z,4.60
2023-05-22T19:31:09.833Z,4.70
2023-05-22T19:33:37.586Z,5.00
2023-05-22T19:36:06.780Z,5.00
2023-05-22T19:38:35.916Z,5.20
2023-05-22T19:41:04.053Z,4.50
2023-05-22T19:43:32.006Z,4.40
2023-05-22T19:46:00.315Z,4.90
2023-05-22T19:48:29.928Z,4.90
2023-05-22T19:50:59.055Z,5.20
2023-05-22T19:53:26.776Z,5.10
2023-05-22T19:55:54.500Z,5.40
2023-05-22T19:58:22.186Z,4.90
2023-05-22T20:00:49.910Z,5.00
2023-05-22T20:03:20.451Z,5.50
2023-05-22T20:05:55.625Z,4.80
2023-05-22T20:08:25.471Z,5.20
2023-05-22T20:10:53.534Z,4.50
2023-05-22T20:13:21.284Z,6.90
2023-05-22T20:15:51.205Z,6.30
2023-05-22T20:18:20.819Z,6.80
2023-05-22T20:20:48.641Z,7.40
2023-05-22T20:23:17.408Z,8.10
2023-05-22T20:25:45.233Z,7.40
2023-05-22T20:28:12.961Z,7.80
2023-05-22T20:30:40.886Z,6.20
2023-05-22T20:33:08.761Z,6.10
2023-05-22T20:35:37.249Z,5.80
2023-05-22T20:38:08.676Z,5.70
2023-05-22T20:40:42.343Z,6.30
2023-05-22T20:43:13.857Z,5.90
2023-05-22T20:45:45.780Z,5.80
2023-05-22T20:48:14.234Z,6.20
2023-05-22T20:50:42.335Z,5.70
2023-05-22T20:53:10.133Z,6.10
2023-05-22T20:55:37.863Z,5.90
2023-05-22T20:58:05.846Z,6.20
2023-05-22T21:00:34.959Z,6.60
2023-05-22T21:03:02.789Z,6.70
2023-05-22T21:05:30.902Z,6.20
2023-05-22T21:07:58.624Z,6.00
2023-05-22T21:10:26.496Z,6.40
2023-05-22T21:12:54.163Z,6.60
2023-05-22T21:15:21.962Z,6.40
2023-05-22T21:17:49.788Z,6.70
2023-05-22T21:20:17.615Z,7.40
2023-05-22T21:22:47.720Z,6.20
2023-05-22T21:25:15.624Z,6.10
2023-05-22T21:27:43.305Z,6.10
2023-05-22T21:30:13.197Z,6.60
2023-05-22T21:32:41.141Z,5.90
2023-05-22T21:35:09.773Z,5.40
2023-05-22T21:37:37.737Z,5.40
2023-05-22T21:40:07.786Z,5.40
2023-05-22T21:42:46.614Z,5.50
2023-05-22T21:45:15.244Z,5.20
2023-05-22T21:47:43.194Z,5.50
2023-05-22T21:50:11.733Z,5.50
2023-05-22T21:52:39.536Z,5.20
2023-05-22T21:55:07.915Z,5.40
2023-05-22T21:57:36.543Z,5.10
2023-05-22T22:00:04.766Z,5.80
2023-05-22T22:02:32.463Z,4.90
2023-05-22T22:05:00.509Z,5.50
2023-05-22T22:07:28.197Z,5.50
2023-05-22T22:09:55.875Z,5.30
2023-05-22T22:12:23.691Z,5.90
2023-05-22T22:14:51.438Z,5.50
2023-05-22T22:17:23.767Z,5.50
2023-05-22T22:19:53.683Z,4.80
2023-05-22T22:22:22.774Z,5.40
2023-05-22T22:24:50.820Z,4.60
2023-05-22T22:27:19.823Z,4.80
2023-05-22T22:29:47.620Z,4.90
2023-05-22T22:32:15.429Z,4.60
2023-05-22T22:34:45.933Z,4.80
2023-05-22T22:37:14.045Z,4.90
2023-05-22T22:39:41.730Z,5.10
2023-05-22T22:42:09.341Z,4.80
2023-05-22T22:44:37.030Z,4.30
2023-05-22T22:47:04.990Z,4.90
2023-05-22T22:49:32.956Z,3.90
2023-05-22T22:52:00.931Z,4.40
2023-05-22T22:54:28.637Z,4.60
2023-05-22T22:56:56.452Z,4.90
2023-05-22T22:59:24.369Z,4.30
2023-05-22T23:01:52.159Z,5.00
2023-05-22T23:04:20.131Z,4.50
2023-05-22T23:06:47.997Z,4.70
2023-05-22T23:09:15.691Z,4.90
2023-05-22T23:11:43.454Z,4.50
2023-05-22T23:14:11.234Z,4.20
2023-05-22T23:16:43.178Z,4.70
2023-05-22T23:19:11.860Z,4.40
2023-05-22T23:21:39.880Z,4.70
2023-05-22T23:24:07.744Z,4.40
2023-05-22T23:26:35.546Z,4.60
2023-05-22T23:29:03.297Z,4.40
2023-05-22T23:31:31.323Z,4.70
2023-05-22T23:33:59.121Z,4.90
2023-05-22T23:36:26.918Z,4.50
2023-05-22T23:38:54.674Z,4.30
2023-05-22T23:41:22.309Z,4.50
2023-05-22T23:43:49.991Z,4.30
2023-05-22T23:46:21.221Z,4.20
2023-05-22T23:48:49.128Z,4.00
2023-05-22T23:51:16.985Z,4.30
2023-05-22T23:53:45.120Z,4.60
2023-05-22T23:56:12.877Z,4.60
2023-05-22T23:58:40.646Z,4.20
